Impacts METAR Board
IDs:

KLAX - Los Angeles Intl, CA, US

Updated at: 2200 UTC 22 Jun 2018
Potential Impact None Slight Moderate High
Time 22/10Z 22/11Z 22/12Z 22/13Z 22/14Z 22/15Z 22/16Z 22/17Z 22/18Z 22/19Z 22/20Z 22/21Z 22/22Z
Temp64 64 65 64 65 65 65 65 66 70 72 70 69
Dewpt61 61 61 61 61 61 61 61 61 61 61 61 61
Altim29.91 29.90 29.90 29.90 29.90 29.91 29.93 29.92 29.91 29.90 29.88 29.87 29.85
VIS5 5 5 2.5 2.5 2.5 2.5 3 4 7 7 7 10
CIG7 7 7 7 10 10 10 7 10 15 16 13 11
CoverOVCOVCOVCOVCOVCOVCOVCOVCOVCBKNBKNBKNBKN
FltCatIFRIFRIFRIFRIFRIFRIFRIFRMVFRMVFRMVFRMVFRMVFR
WXBRBRBR-DZ BRBRBRBRBRBR--------
WDir29026022002502402402602600280240250
WSpd4 5 3 4 5 6 7 5 5 5 10 7 10
WGst-- -- -- -- -- -- -- -- -- -- -- -- --
Raw hourly METARs
KLAX 220953Z 29004KT 5SM BR OVC007 18/16 A2991 RMK AO2 SLP124 T01780161
KLAX 221053Z 26005KT 5SM BR OVC007 18/16 A2990 RMK AO2 SLP123 T01780161
KLAX 221153Z 22003KT 5SM BR OVC007 18/16 A2990 RMK AO2 SLP122 T01830161 10183 20178 56007
KLAX 221253Z VRB04KT 2 1/2SM -DZ BR BKN007 OVC010 18/16 A2990 RMK AO2 DZB53 SLP122 VIS SW 2 P0000 T01780161
KLAX 221353Z 25005KT 2 1/2SM BR SCT007 OVC010 18/16 A2990 RMK AO2 DZE16 SLP124 P0000 T01830161
KLAX 221453Z 24006KT 2 1/2SM BR SCT007 OVC010 18/16 A2991 RMK AO2 SLP128 60000 T01830161 53006
KLAX 221553Z 24007KT 2 1/2SM BR SCT008 OVC010 18/16 A2993 RMK AO2 SLP132 VIS 2V3 T01830161
KLAX 221653Z 26005KT 3SM BR OVC007 18/16 A2992 RMK AO2 SLP130 T01830161
KLAX 221753Z 26005KT 4SM BR SCT007 OVC010 19/16 A2991 RMK AO2 SLP127 60000 T01890161 10189 20178 58000
KLAX 221904Z VRB05KT 7SM SCT008 BKN015 21/16 A2990 RMK AO2 T02110161
KLAX 221953Z 28010KT 7SM FEW009 BKN016 22/16 A2988 RMK AO2 SLP117 T02220161
KLAX 222053Z 24007KT 7SM SCT009 BKN013 21/16 A2987 RMK AO2 SLP112 T02110161 58015
KLAX 222153Z 25010KT 10SM BKN011 21/16 A2985 RMK AO2 SLP107 T02060161



Page loaded:  22:58 UTC  |   03:58 PM Pacific  |   04:58 PM Mountain  |   05:58 PM Central  |   06:58 PM Eastern

 

ADVISORIES

FORECASTS

FORECASTS

OBSERVATIONS

USER TOOLS

ABOUT US